sensor_id;sensor_type;location;lat;lon;timestamp;temperature;humidity
22769;DHT22;13001;51.968;5.918;2022-08-21T14:00:29;27.10;71.30
22769;DHT22;13001;51.968;5.918;2022-08-21T14:07:56;31.70;41.30
22769;DHT22;13001;51.968;5.918;2022-08-21T14:10:22;30.80;41.40
22769;DHT22;13001;51.968;5.918;2022-08-21T14:12:55;30.70;41.70
22769;DHT22;13001;51.968;5.918;2022-08-21T14:15:26;30.70;41.90
22769;DHT22;13001;51.968;5.918;2022-08-21T14:18:15;30.70;41.90
22769;DHT22;13001;51.968;5.918;2022-08-21T14:20:43;30.60;41.80
22769;DHT22;13001;51.968;5.918;2022-08-21T14:23:11;30.50;41.90
22769;DHT22;13001;51.968;5.918;2022-08-21T14:25:44;30.50;42.10
22769;DHT22;13001;51.968;5.918;2022-08-21T14:28:24;30.50;41.80
22769;DHT22;13001;51.968;5.918;2022-08-21T14:30:53;30.60;41.80
22769;DHT22;13001;51.968;5.918;2022-08-21T14:33:28;30.50;42.20
22769;DHT22;13001;51.968;5.918;2022-08-21T20:17:08;30.50;41.90
22769;DHT22;13001;51.968;5.918;2022-08-21T20:19:37;23.00;68.40
22769;DHT22;13001;51.968;5.918;2022-08-21T20:22:05;22.60;68.20
22769;DHT22;13001;51.968;5.918;2022-08-21T20:24:32;22.50;69.10
22769;DHT22;13001;51.968;5.918;2022-08-21T20:27:02;22.50;68.40
22769;DHT22;13001;51.968;5.918;2022-08-21T20:29:31;22.50;68.30
22769;DHT22;13001;51.968;5.918;2022-08-21T20:31:59;22.50;68.30
22769;DHT22;13001;51.968;5.918;2022-08-21T20:34:30;22.40;68.40
22769;DHT22;13001;51.968;5.918;2022-08-21T20:36:58;22.40;68.50
22769;DHT22;13001;51.968;5.918;2022-08-21T20:39:26;22.30;68.70
22769;DHT22;13001;51.968;5.918;2022-08-21T20:41:54;22.30;68.90
22769;DHT22;13001;51.968;5.918;2022-08-21T20:44:26;22.30;68.90
22769;DHT22;13001;51.968;5.918;2022-08-21T20:46:54;22.30;69.00
22769;DHT22;13001;51.968;5.918;2022-08-21T20:49:24;22.20;69.10
22769;DHT22;13001;51.968;5.918;2022-08-21T20:51:52;22.20;69.20
22769;DHT22;13001;51.968;5.918;2022-08-21T20:54:26;22.20;69.30
22769;DHT22;13001;51.968;5.918;2022-08-21T20:57:09;22.10;69.40
22769;DHT22;13001;51.968;5.918;2022-08-21T20:59:44;22.10;69.50
22769;DHT22;13001;51.968;5.918;2022-08-21T21:02:42;22.00;69.70
22769;DHT22;13001;51.968;5.918;2022-08-21T21:05:16;22.00;69.80
22769;DHT22;13001;51.968;5.918;2022-08-21T21:08:02;21.90;70.10
22769;DHT22;13001;51.968;5.918;2022-08-21T21:10:40;21.90;70.40
22769;DHT22;13001;51.968;5.918;2022-08-21T21:13:18;21.70;70.70
22769;DHT22;13001;51.968;5.918;2022-08-21T21:15:36;21.70;71.00
22769;DHT22;13001;51.968;5.918;2022-08-21T21:18:14;21.70;71.30
22769;DHT22;13001;51.968;5.918;2022-08-21T21:20:56;21.60;71.50
22769;DHT22;13001;51.968;5.918;2022-08-21T21:26:00;21.50;72.00
22769;DHT22;13001;51.968;5.918;2022-08-21T21:28:38;21.50;72.30
22769;DHT22;13001;51.968;5.918;2022-08-21T21:31:01;21.50;72.60
22769;DHT22;13001;51.968;5.918;2022-08-21T21:33:30;21.40;72.90
22769;DHT22;13001;51.968;5.918;2022-08-21T21:36:07;21.40;73.00
22769;DHT22;13001;51.968;5.918;2022-08-21T21:38:42;21.30;73.30
22769;DHT22;13001;51.968;5.918;2022-08-21T21:41:11;21.20;73.60
22769;DHT22;13001;51.968;5.918;2022-08-21T21:43:42;21.10;73.70
22769;DHT22;13001;51.968;5.918;2022-08-21T21:46:18;20.90;74.00
22769;DHT22;13001;51.968;5.918;2022-08-21T21:51:31;20.50;74.40
22769;DHT22;13001;51.968;5.918;2022-08-21T21:53:55;20.40;74.80
22769;DHT22;13001;51.968;5.918;2022-08-21T21:59:19;20.10;75.10
22769;DHT22;13001;51.968;5.918;2022-08-21T22:01:55;20.00;75.30
22769;DHT22;13001;51.968;5.918;2022-08-21T22:04:36;20.00;75.50
22769;DHT22;13001;51.968;5.918;2022-08-21T22:07:06;19.90;75.60
22769;DHT22;13001;51.968;5.918;2022-08-21T22:09:43;19.90;75.70
22769;DHT22;13001;51.968;5.918;2022-08-21T22:12:02;19.80;75.70
22769;DHT22;13001;51.968;5.918;2022-08-21T22:14:31;19.80;75.70
22769;DHT22;13001;51.968;5.918;2022-08-21T22:16:57;19.70;75.70
22769;DHT22;13001;51.968;5.918;2022-08-21T22:19:30;19.70;75.80
22769;DHT22;13001;51.968;5.918;2022-08-21T22:24:29;19.60;75.90
22769;DHT22;13001;51.968;5.918;2022-08-21T22:26:59;19.60;76.00
22769;DHT22;13001;51.968;5.918;2022-08-21T22:29:26;19.60;76.20
22769;DHT22;13001;51.968;5.918;2022-08-21T22:32:02;19.50;76.20
22769;DHT22;13001;51.968;5.918;2022-08-21T22:34:29;19.50;76.30
22769;DHT22;13001;51.968;5.918;2022-08-21T22:36:58;19.50;76.30
22769;DHT22;13001;51.968;5.918;2022-08-21T22:39:26;19.50;76.40
22769;DHT22;13001;51.968;5.918;2022-08-21T22:41:54;19.50;76.60
22769;DHT22;13001;51.968;5.918;2022-08-21T22:44:26;19.50;76.60
22769;DHT22;13001;51.968;5.918;2022-08-21T22:46:58;19.50;76.70
22769;DHT22;13001;51.968;5.918;2022-08-21T22:52:06;19.50;76.80
22769;DHT22;13001;51.968;5.918;2022-08-21T22:54:33;19.50;76.90
22769;DHT22;13001;51.968;5.918;2022-08-21T22:57:03;19.50;76.90
22769;DHT22;13001;51.968;5.918;2022-08-21T22:59:31;19.40;77.00
22769;DHT22;13001;51.968;5.918;2022-08-21T23:01:59;19.40;77.00
22769;DHT22;13001;51.968;5.918;2022-08-21T23:04:26;19.40;77.00
22769;DHT22;13001;51.968;5.918;2022-08-21T23:06:55;19.40;77.10
22769;DHT22;13001;51.968;5.918;2022-08-21T23:11:56;19.40;77.20
22769;DHT22;13001;51.968;5.918;2022-08-21T23:14:23;19.40;77.30
22769;DHT22;13001;51.968;5.918;2022-08-21T23:19:41;19.40;77.40
22769;DHT22;13001;51.968;5.918;2022-08-21T23:22:23;19.40;77.40
22769;DHT22;13001;51.968;5.918;2022-08-21T23:24:47;19.40;77.40
22769;DHT22;13001;51.968;5.918;2022-08-21T23:27:25;19.30;77.40
22769;DHT22;13001;51.968;5.918;2022-08-21T23:32:25;19.30;77.50
22769;DHT22;13001;51.968;5.918;2022-08-21T23:37:24;19.30;77.60
22769;DHT22;13001;51.968;5.918;2022-08-21T23:40:13;19.30;77.70
22769;DHT22;13001;51.968;5.918;2022-08-21T23:43:43;19.30;77.80
22769;DHT22;13001;51.968;5.918;2022-08-21T23:45:32;19.30;77.80
22769;DHT22;13001;51.968;5.918;2022-08-21T23:48:09;19.20;77.70
22769;DHT22;13001;51.968;5.918;2022-08-21T23:50:39;19.20;77.70
22769;DHT22;13001;51.968;5.918;2022-08-21T23:58:31;19.20;77.80
